Time;durP1;ratioP1;P1;durP2;ratioP2;P2;SDS_P1;SDS_P2;PMS_P1;PMS_P2;Temp;Humidity;BMP_temperature;BMP_pressure;BME280_temperature;BME280_humidity;BME280_pressure;Samples;Min_cycle;Max_cycle;Signal;HPM_P1;HPM_P2
2024/01/23 00:00:45;;;;;;;40.33;11.93;;;10.90;99.90;;;;;;5094343;28;20028;-80
2024/01/23 00:03:10;;;;;;;48.95;12.38;;;11.00;99.90;;;;;;5087605;28;20497;-78
2024/01/23 00:05:36;;;;;;;41.20;11.48;;;11.10;99.90;;;;;;5073968;28;20105;-79
2024/01/23 00:08:03;;;;;;;45.65;11.50;;;11.10;99.90;;;;;;5073845;28;20447;-82
2024/01/23 00:10:29;;;;;;;46.25;11.50;;;11.10;99.90;;;;;;5073948;28;20455;-83
2024/01/23 00:12:55;;;;;;;43.17;11.63;;;11.10;99.90;;;;;;5080282;28;20103;-82
2024/01/23 00:15:21;;;;;;;44.78;10.95;;;11.20;99.90;;;;;;5078188;28;20068;-80
2024/01/23 00:17:47;;;;;;;40.10;11.27;;;11.30;99.90;;;;;;5084080;28;20016;-82
2024/01/23 00:20:12;;;;;;;32.65;8.75;;;11.30;99.90;;;;;;5094113;28;20040;-84
2024/01/23 00:22:38;;;;;;;35.08;9.07;;;11.40;99.90;;;;;;5093849;28;20043;-81
2024/01/23 00:25:04;;;;;;;36.00;9.65;;;11.50;99.90;;;;;;5093782;28;20028;-82
2024/01/23 00:27:30;;;;;;;40.45;10.68;;;11.60;99.90;;;;;;5093859;28;20109;-82
2024/01/23 00:29:56;;;;;;;35.45;9.98;;;11.70;99.90;;;;;;5093681;28;20040;-83
2024/01/23 00:32:24;;;;;;;39.08;10.55;;;11.80;99.90;;;;;;5093796;28;20031;-83
2024/01/23 00:34:50;;;;;;;44.47;10.35;;;11.80;99.90;;;;;;5093835;28;20111;-83
2024/01/23 00:37:15;;;;;;;37.05;10.00;;;11.70;99.90;;;;;;5093672;28;20027;-83
2024/01/23 00:39:41;;;;;;;39.00;11.23;;;11.60;99.90;;;;;;5093082;28;20036;-83
2024/01/23 00:42:10;;;;;;;37.67;11.48;;;11.50;99.90;;;;;;5126308;27;20039;-82
2024/01/23 00:44:36;;;;;;;44.55;11.02;;;11.50;99.90;;;;;;5093742;28;20024;-83
2024/01/23 00:47:02;;;;;;;42.05;11.48;;;11.40;99.90;;;;;;5091928;28;20721;-82
2024/01/23 00:49:28;;;;;;;46.83;11.63;;;11.40;99.90;;;;;;5091063;28;20532;-82
2024/01/23 00:51:53;;;;;;;45.90;11.68;;;11.40;99.90;;;;;;5092575;28;20051;-82
2024/01/23 00:54:19;;;;;;;51.50;11.65;;;11.50;99.90;;;;;;5095250;28;20509;-82
2024/01/23 00:56:44;;;;;;;42.30;10.93;;;11.50;99.90;;;;;;5091350;28;20020;-83
2024/01/23 00:59:12;;;;;;;47.20;11.50;;;11.50;99.90;;;;;;5091527;28;20123;-83
2024/01/23 01:01:38;;;;;;;43.35;10.88;;;11.50;99.90;;;;;;5092850;28;20028;-83
2024/01/23 01:04:04;;;;;;;46.97;10.73;;;11.40;99.90;;;;;;5092828;28;20022;-82
2024/01/23 01:06:29;;;;;;;45.97;10.77;;;11.50;99.90;;;;;;5093181;28;20051;-84
2024/01/23 01:08:55;;;;;;;44.08;10.43;;;11.50;99.90;;;;;;5092946;28;20050;-83
2024/01/23 01:11:21;;;;;;;42.60;10.07;;;11.50;99.90;;;;;;5092617;28;20028;-83
2024/01/23 01:13:46;;;;;;;47.78;11.07;;;11.60;99.90;;;;;;5093030;28;20074;-83
2024/01/23 01:16:12;;;;;;;46.78;10.80;;;11.70;99.90;;;;;;5093264;28;20415;-84
2024/01/23 01:18:40;;;;;;;52.17;11.38;;;11.70;99.90;;;;;;5092723;28;20032;-83
2024/01/23 01:21:08;;;;;;;53.33;10.75;;;11.70;99.90;;;;;;5092999;28;20028;-83
2024/01/23 01:23:37;;;;;;;55.22;11.32;;;11.80;99.90;;;;;;5092254;28;20044;-82
2024/01/23 01:26:03;;;;;;;47.28;10.27;;;11.80;99.90;;;;;;5092879;28;20085;-82
2024/01/23 01:28:28;;;;;;;51.72;10.55;;;11.80;99.90;;;;;;5092979;28;20482;-82
2024/01/23 01:30:54;;;;;;;48.80;11.82;;;11.80;99.90;;;;;;5092623;28;20494;-83
2024/01/23 01:33:20;;;;;;;43.35;10.15;;;11.80;99.90;;;;;;5092263;28;20028;-83
2024/01/23 01:35:45;;;;;;;55.10;10.60;;;11.80;99.90;;;;;;5072268;28;20036;-83
2024/01/23 01:38:11;;;;;;;38.53;8.80;;;11.80;99.90;;;;;;5090813;28;20490;-83
2024/01/23 01:40:37;;;;;;;49.17;10.80;;;11.80;99.90;;;;;;5092363;28;20062;-83
2024/01/23 01:43:03;;;;;;;47.17;9.88;;;11.90;99.90;;;;;;5092247;28;20538;-83
2024/01/23 01:45:28;;;;;;;40.03;9.88;;;11.80;99.90;;;;;;5092745;28;20494;-83
2024/01/23 01:47:55;;;;;;;49.40;9.95;;;11.90;99.90;;;;;;5092347;28;20028;-83
2024/01/23 01:50:20;;;;;;;49.08;10.73;;;11.90;99.90;;;;;;5092286;28;20379;-82
2024/01/23 01:52:46;;;;;;;44.95;9.82;;;11.90;99.90;;;;;;5092187;28;20035;-83
2024/01/23 01:55:12;;;;;;;53.53;10.75;;;11.90;99.90;;;;;;5092291;28;20043;-82
2024/01/23 01:57:39;;;;;;;50.65;10.05;;;12.00;99.90;;;;;;5092251;28;20497;-82
2024/01/23 02:00:06;;;;;;;50.38;10.68;;;12.00;99.90;;;;;;5092579;28;20028;-83
2024/01/23 02:02:33;;;;;;;52.60;10.40;;;12.10;99.90;;;;;;5092501;28;20062;-84
2024/01/23 02:04:59;;;;;;;50.53;10.75;;;12.20;99.90;;;;;;5090982;28;20025;-84
2024/01/23 02:07:25;;;;;;;50.33;10.75;;;12.30;99.90;;;;;;5092414;28;20375;-84
2024/01/23 02:09:51;;;;;;;47.00;9.88;;;12.50;99.90;;;;;;5092487;28;20093;-84
2024/01/23 02:12:17;;;;;;;48.20;10.20;;;12.50;99.90;;;;;;5092087;28;20465;-84
2024/01/23 02:14:42;;;;;;;49.75;11.43;;;12.60;99.90;;;;;;5091853;28;20082;-85
2024/01/23 02:17:08;;;;;;;52.03;11.05;;;12.50;99.90;;;;;;5080975;28;20161;-85
2024/01/23 02:19:34;;;;;;;49.10;10.32;;;12.60;99.90;;;;;;5078378;28;20024;-83
2024/01/23 02:22:00;;;;;;;53.72;10.45;;;12.60;99.90;;;;;;5074096;28;20029;-83
2024/01/23 02:24:26;;;;;;;56.90;11.25;;;12.50;99.90;;;;;;5088680;28;20055;-83
2024/01/23 02:26:52;;;;;;;54.45;11.60;;;12.50;99.90;;;;;;5085406;28;20640;-84
2024/01/23 02:29:17;;;;;;;58.70;11.48;;;12.40;99.90;;;;;;5078360;28;20035;-84
2024/01/23 02:31:43;;;;;;;63.45;12.10;;;12.30;99.90;;;;;;5083869;28;20070;-83
2024/01/23 02:34:09;;;;;;;64.63;11.95;;;12.30;99.90;;;;;;5083985;28;20036;-84
2024/01/23 02:36:39;;;;;;;61.33;11.70;;;12.20;99.90;;;;;;5078805;28;20073;-83
2024/01/23 02:39:08;;;;;;;58.78;11.95;;;12.20;99.90;;;;;;5079749;28;20086;-84
2024/01/23 02:41:34;;;;;;;52.47;12.48;;;12.20;99.90;;;;;;5082172;28;20529;-84
2024/01/23 02:44:00;;;;;;;46.33;11.77;;;12.10;99.90;;;;;;5083797;28;20024;-84
2024/01/23 02:46:25;;;;;;;57.78;11.35;;;12.00;99.90;;;;;;5083323;28;20040;-84
2024/01/23 02:48:51;;;;;;;59.78;13.15;;;12.00;99.90;;;;;;5085333;28;20081;-83
2024/01/23 02:51:20;;;;;;;59.58;12.93;;;12.00;99.90;;;;;;5081436;28;20036;-84
2024/01/23 02:53:47;;;;;;;62.40;12.52;;;11.90;99.90;;;;;;5080753;28;20032;-84
2024/01/23 02:56:13;;;;;;;59.38;12.40;;;11.90;99.90;;;;;;5085249;28;20016;-83
2024/01/23 02:58:39;;;;;;;54.63;11.63;;;11.90;99.90;;;;;;5084336;28;20032;-84
2024/01/23 03:01:05;;;;;;;56.60;11.52;;;11.80;99.90;;;;;;5090439;28;20386;-83
2024/01/23 03:03:31;;;;;;;58.63;12.45;;;11.80;99.90;;;;;;5079948;28;20032;-83
2024/01/23 03:05:56;;;;;;;66.82;13.07;;;11.70;99.90;;;;;;5081513;28;20031;-83
2024/01/23 03:08:23;;;;;;;63.15;14.27;;;11.70;99.90;;;;;;5077473;28;20024;-83
2024/01/23 03:10:49;;;;;;;65.47;13.30;;;11.70;99.90;;;;;;5078766;28;20028;-83
2024/01/23 03:13:15;;;;;;;58.05;12.70;;;11.80;99.90;;;;;;5080883;28;20031;-83
2024/01/23 03:15:41;;;;;;;63.40;13.10;;;11.70;99.90;;;;;;5086908;28;20036;-84
2024/01/23 03:18:07;;;;;;;65.10;12.70;;;11.70;99.90;;;;;;5080632;28;20044;-83
2024/01/23 03:20:33;;;;;;;50.20;11.73;;;11.60;99.90;;;;;;5082556;28;20071;-83
2024/01/23 03:22:59;;;;;;;65.88;12.90;;;11.50;99.90;;;;;;5080010;28;20044;-83
2024/01/23 03:25:26;;;;;;;60.78;12.93;;;11.50;99.90;;;;;;5084926;28;20379;-83
2024/01/23 03:27:51;;;;;;;58.67;12.73;;;11.50;99.90;;;;;;5081389;28;20437;-82
2024/01/23 03:30:31;;;;;;;60.35;13.40;;;11.50;99.90;;;;;;5085257;28;20088;-83
2024/01/23 03:32:57;;;;;;;65.05;13.30;;;11.50;99.90;;;;;;5088149;28;20028;-83
2024/01/23 03:35:24;;;;;;;69.55;13.35;;;11.50;99.90;;;;;;5079075;28;20044;-82
2024/01/23 03:37:50;;;;;;;57.28;11.98;;;11.50;99.90;;;;;;5085846;28;20112;-82
2024/01/23 03:40:16;;;;;;;57.42;12.43;;;11.50;99.90;;;;;;5086963;28;20131;-82
2024/01/23 03:42:42;;;;;;;59.05;12.65;;;11.50;99.90;;;;;;5084006;28;20104;-83
2024/01/23 03:45:08;;;;;;;58.03;13.07;;;11.60;99.90;;;;;;5092538;28;20024;-83
2024/01/23 03:47:34;;;;;;;50.65;11.88;;;11.60;99.90;;;;;;5083284;28;20043;-85
2024/01/23 03:50:00;;;;;;;54.67;12.05;;;11.80;99.90;;;;;;5079192;28;20067;-84
2024/01/23 03:52:26;;;;;;;58.00;12.43;;;12.00;99.90;;;;;;5084444;28;20055;-84
2024/01/23 03:54:51;;;;;;;63.25;13.80;;;12.10;99.90;;;;;;5087909;28;20046;-84
2024/01/23 03:57:18;;;;;;;62.42;12.15;;;12.20;99.90;;;;;;5079789;28;20047;-85
2024/01/23 03:59:46;;;;;;;62.97;12.80;;;12.20;99.90;;;;;;5082465;28;20490;-85
2024/01/23 04:02:12;;;;;;;59.60;12.85;;;12.20;99.90;;;;;;5083590;28;20498;-83
2024/01/23 04:04:41;;;;;;;55.08;11.68;;;12.20;99.90;;;;;;5089757;28;20036;-83
2024/01/23 04:07:07;;;;;;;64.88;12.38;;;12.10;99.90;;;;;;5084316;28;20077;-83
2024/01/23 04:09:32;;;;;;;65.50;12.80;;;12.10;99.90;;;;;;5077965;28;20112;-83
2024/01/23 04:11:58;;;;;;;58.63;13.23;;;12.00;99.90;;;;;;5088050;28;20039;-83
2024/01/23 04:14:23;;;;;;;53.78;12.32;;;11.80;99.90;;;;;;5088089;28;20512;-84
2024/01/23 04:16:49;;;;;;;58.08;12.90;;;11.80;99.90;;;;;;5084678;28;20428;-83
2024/01/23 04:19:15;;;;;;;53.97;12.32;;;11.70;99.90;;;;;;5079322;28;20033;-84
2024/01/23 04:21:40;;;;;;;57.85;12.05;;;11.70;99.90;;;;;;5083939;28;20020;-83
2024/01/23 04:24:07;;;;;;;57.72;11.32;;;11.60;99.90;;;;;;5084352;28;20028;-82
2024/01/23 04:26:33;;;;;;;59.67;11.98;;;11.60;99.90;;;;;;5084496;28;20029;-83
2024/01/23 04:28:58;;;;;;;57.05;12.80;;;11.60;99.90;;;;;;5083719;28;20055;-84
2024/01/23 04:31:25;;;;;;;57.67;12.57;;;11.60;99.90;;;;;;5082730;28;20495;-84
2024/01/23 04:33:50;;;;;;;57.20;13.23;;;11.60;99.90;;;;;;5085758;28;20529;-83
2024/01/23 04:36:17;;;;;;;55.97;11.70;;;11.70;99.90;;;;;;5083968;28;20044;-83
2024/01/23 04:38:42;;;;;;;55.05;11.88;;;11.70;99.90;;;;;;5074960;28;20044;-83
2024/01/23 04:41:09;;;;;;;53.67;11.32;;;11.70;99.90;;;;;;5081409;28;20049;-83
2024/01/23 04:43:35;;;;;;;56.15;11.88;;;11.80;99.90;;;;;;5085249;28;20021;-84
2024/01/23 04:46:01;;;;;;;54.13;11.30;;;11.80;99.90;;;;;;5079661;28;20039;-84
2024/01/23 04:48:27;;;;;;;61.55;12.93;;;11.80;99.90;;;;;;5086308;28;20038;-85
2024/01/23 04:50:53;;;;;;;54.38;11.43;;;11.90;99.90;;;;;;5086543;28;20024;-84
2024/01/23 04:53:18;;;;;;;52.70;11.15;;;11.90;99.90;;;;;;5084105;28;20084;-84
2024/01/23 04:55:44;;;;;;;48.42;11.30;;;11.90;99.90;;;;;;5092340;28;20031;-83
2024/01/23 04:58:10;;;;;;;55.63;11.02;;;12.00;99.90;;;;;;5083382;28;20567;-84
2024/01/23 05:00:35;;;;;;;55.25;11.48;;;12.00;99.90;;;;;;5082184;28;20037;-84
2024/01/23 05:03:01;;;;;;;55.00;11.98;;;12.00;99.90;;;;;;5075112;28;20063;-84
2024/01/23 05:05:28;;;;;;;53.47;12.30;;;12.00;99.90;;;;;;5084873;28;20060;-84
2024/01/23 05:07:53;;;;;;;58.08;12.27;;;12.00;99.90;;;;;;5081075;28;20039;-84
2024/01/23 05:10:19;;;;;;;55.88;12.10;;;12.10;99.90;;;;;;5079231;28;20024;-84
2024/01/23 05:12:45;;;;;;;47.95;9.75;;;12.10;99.90;;;;;;5074275;28;20498;-84
2024/01/23 05:15:10;;;;;;;56.08;11.15;;;12.10;99.90;;;;;;5077685;28;20048;-84
2024/01/23 05:17:36;;;;;;;56.30;11.70;;;12.10;99.90;;;;;;5084154;28;20023;-84
2024/01/23 05:20:04;;;;;;;63.15;12.35;;;12.20;99.90;;;;;;5076039;28;20024;-84
2024/01/23 05:22:30;;;;;;;51.55;11.20;;;12.20;99.90;;;;;;5080613;28;20115;-84
2024/01/23 05:24:56;;;;;;;56.78;11.77;;;12.20;99.90;;;;;;5083784;28;20473;-85
2024/01/23 05:27:21;;;;;;;49.22;10.52;;;12.20;99.90;;;;;;5086939;28;20033;-87
2024/01/23 05:29:47;;;;;;;44.22;10.80;;;12.30;99.90;;;;;;5079124;28;20028;-86
2024/01/23 05:32:13;;;;;;;48.47;10.10;;;12.50;99.90;;;;;;5081762;28;20490;-86
2024/01/23 05:34:39;;;;;;;46.33;9.50;;;12.60;99.90;;;;;;5080394;28;20035;-86
2024/01/23 05:37:05;;;;;;;46.08;10.43;;;12.60;99.90;;;;;;5092666;28;20388;-86
2024/01/23 05:39:37;;;;;;;42.05;9.27;;;12.70;99.90;;;;;;5092836;28;20475;-86
2024/01/23 05:42:03;;;;;;;41.20;8.70;;;12.70;99.90;;;;;;5092516;28;20032;-86
2024/01/23 05:44:28;;;;;;;36.83;8.98;;;12.80;99.90;;;;;;5092320;28;20035;-87
2024/01/23 05:46:54;;;;;;;36.47;8.55;;;12.90;99.90;;;;;;5080096;28;20032;-85
2024/01/23 05:49:20;;;;;;;31.75;7.88;;;12.90;99.90;;;;;;5076577;28;20122;-84
2024/01/23 05:51:45;;;;;;;41.80;8.43;;;12.70;99.90;;;;;;5072307;28;20025;-84
2024/01/23 05:54:11;;;;;;;40.10;8.73;;;12.50;99.90;;;;;;5085094;28;20394;-83
2024/01/23 05:56:36;;;;;;;39.60;8.93;;;12.50;99.90;;;;;;5092355;28;20032;-84
2024/01/23 05:59:02;;;;;;;31.00;7.90;;;12.40;99.90;;;;;;5082643;28;20031;-84
2024/01/23 06:01:28;;;;;;;39.28;8.68;;;12.30;99.90;;;;;;5085225;28;20046;-84
2024/01/23 06:03:54;;;;;;;34.28;7.35;;;12.30;99.90;;;;;;5085048;28;20398;-84
2024/01/23 06:06:20;;;;;;;34.40;8.30;;;12.20;99.90;;;;;;5081599;28;20024;-84
2024/01/23 06:08:46;;;;;;;37.25;8.13;;;12.10;99.90;;;;;;5077717;28;20040;-84
2024/01/23 06:11:13;;;;;;;34.92;7.45;;;12.10;99.90;;;;;;5081892;28;20032;-84
2024/01/23 06:13:38;;;;;;;35.33;7.85;;;12.00;99.90;;;;;;5085506;28;20390;-84
2024/01/23 06:16:05;;;;;;;34.03;7.03;;;11.90;99.90;;;;;;5088904;28;20027;-84
2024/01/23 06:18:30;;;;;;;27.10;6.68;;;11.90;99.90;;;;;;5078258;28;20103;-84
2024/01/23 06:20:57;;;;;;;35.15;7.13;;;11.90;99.90;;;;;;5072543;28;20116;-84
2024/01/23 06:23:24;;;;;;;26.58;6.75;;;11.90;99.90;;;;;;5088470;28;20028;-83
2024/01/23 06:25:50;;;;;;;38.88;8.35;;;11.80;99.90;;;;;;5091377;28;20077;-84
2024/01/23 06:28:17;;;;;;;29.95;7.72;;;11.80;99.90;;;;;;5082758;28;20420;-83
2024/01/23 06:30:42;;;;;;;26.83;7.00;;;11.80;99.90;;;;;;5082195;28;20405;-83
2024/01/23 06:33:08;;;;;;;26.35;6.65;;;11.80;99.90;;;;;;5084050;28;20024;-83
2024/01/23 06:35:34;;;;;;;30.50;7.05;;;11.80;99.90;;;;;;5082988;28;20048;-84
2024/01/23 06:37:59;;;;;;;36.47;7.25;;;11.80;99.90;;;;;;5081955;28;20039;-84
2024/01/23 06:40:25;;;;;;;30.38;7.32;;;11.80;99.90;;;;;;5082734;28;20052;-84
2024/01/23 06:42:51;;;;;;;36.25;7.60;;;11.80;99.90;;;;;;5074518;28;20158;-83
2024/01/23 06:45:16;;;;;;;26.75;7.40;;;11.80;99.90;;;;;;5084317;28;20061;-84
2024/01/23 06:47:42;;;;;;;33.78;7.63;;;11.80;99.90;;;;;;5079078;28;20113;-83
2024/01/23 06:50:08;;;;;;;32.95;7.65;;;11.90;99.90;;;;;;5082822;28;20553;-83
2024/01/23 06:52:34;;;;;;;28.60;7.35;;;11.80;99.90;;;;;;5079948;28;20380;-83
2024/01/23 06:54:59;;;;;;;29.27;7.35;;;11.80;99.90;;;;;;5082769;28;20081;-84
2024/01/23 06:57:25;;;;;;;36.72;7.70;;;11.70;99.90;;;;;;5081661;28;20021;-84
2024/01/23 06:59:51;;;;;;;28.90;7.05;;;11.60;99.90;;;;;;5089833;28;20450;-84
2024/01/23 07:02:16;;;;;;;31.85;7.65;;;11.60;99.90;;;;;;5089316;28;20055;-84
2024/01/23 07:04:42;;;;;;;30.27;7.53;;;11.50;99.90;;;;;;5087081;28;20555;-83
2024/01/23 07:07:08;;;;;;;28.13;7.35;;;11.40;99.90;;;;;;5083088;28;20130;-84
2024/01/23 07:09:34;;;;;;;29.25;7.32;;;11.40;99.90;;;;;;5081424;28;20079;-84
2024/01/23 07:12:00;;;;;;;27.25;7.03;;;11.50;99.90;;;;;;5081133;28;20028;-84
2024/01/23 07:14:26;;;;;;;28.83;8.07;;;11.70;99.90;;;;;;5085705;28;20105;-84
2024/01/23 07:16:51;;;;;;;28.27;8.43;;;11.80;99.90;;;;;;5090817;28;20368;-85
2024/01/23 07:19:17;;;;;;;27.48;8.80;;;11.80;99.90;;;;;;5080102;28;20036;-86
2024/01/23 07:21:43;;;;;;;28.90;8.68;;;11.80;99.90;;;;;;5081806;28;20024;-85
2024/01/23 07:24:09;;;;;;;25.60;7.68;;;11.80;99.90;;;;;;5084506;28;20032;-85
2024/01/23 07:26:35;;;;;;;21.20;7.13;;;11.90;99.90;;;;;;5086166;28;20494;-85
2024/01/23 07:29:02;;;;;;;26.40;8.50;;;11.90;99.90;;;;;;5083646;28;20032;-84
2024/01/23 07:31:29;;;;;;;26.50;8.40;;;11.80;99.90;;;;;;5075006;28;20025;-83
2024/01/23 07:33:55;;;;;;;25.45;8.13;;;11.70;99.90;;;;;;5074743;28;20024;-84
2024/01/23 07:36:20;;;;;;;27.48;8.07;;;11.50;99.90;;;;;;5094040;28;20039;-84
2024/01/23 07:38:46;;;;;;;29.70;8.20;;;11.40;99.90;;;;;;5095205;28;20509;-84
2024/01/23 07:41:11;;;;;;;29.25;8.40;;;11.30;99.90;;;;;;5094635;28;20050;-84
2024/01/23 07:43:37;;;;;;;30.40;8.18;;;11.20;99.90;;;;;;5095029;28;20078;-84
2024/01/23 07:46:03;;;;;;;27.13;8.20;;;11.10;99.90;;;;;;5091946;28;20016;-84
2024/01/23 07:48:29;;;;;;;30.73;8.75;;;11.10;99.90;;;;;;5074728;28;20028;-84
2024/01/23 07:50:54;;;;;;;25.63;7.00;;;11.00;99.90;;;;;;5077352;28;20032;-83
2024/01/23 07:53:20;;;;;;;30.40;8.13;;;11.00;99.90;;;;;;5080377;28;20043;-84
2024/01/23 07:55:46;;;;;;;28.85;7.60;;;10.90;99.90;;;;;;5082478;28;20041;-83
2024/01/23 07:58:13;;;;;;;30.10;7.65;;;10.90;99.90;;;;;;5081823;28;20062;-83
2024/01/23 08:00:41;;;;;;;24.98;7.90;;;10.80;99.90;;;;;;5079510;28;20039;-83
2024/01/23 08:03:06;;;;;;;30.77;8.13;;;10.90;99.90;;;;;;5079100;28;20090;-83
2024/01/23 08:05:32;;;;;;;30.73;8.45;;;10.90;99.90;;;;;;5089270;28;20432;-83
2024/01/23 08:07:57;;;;;;;28.75;7.78;;;10.90;99.90;;;;;;5083808;28;20024;-83
2024/01/23 08:10:24;;;;;;;26.70;7.78;;;10.90;99.90;;;;;;5080211;28;20024;-82
2024/01/23 08:12:50;;;;;;;30.23;8.65;;;10.90;99.90;;;;;;5080575;28;20055;-82
2024/01/23 08:15:18;;;;;;;32.97;9.07;;;10.90;99.90;;;;;;5091744;28;20032;-83
2024/01/23 08:17:44;;;;;;;31.23;9.00;;;11.00;99.90;;;;;;5086855;28;20052;-79
2024/01/23 08:20:11;;;;;;;26.58;8.10;;;11.00;99.90;;;;;;5084264;28;20071;-76
2024/01/23 08:22:36;;;;;;;27.95;8.75;;;11.00;99.90;;;;;;5076879;28;20031;-75
2024/01/23 08:25:02;;;;;;;32.72;10.18;;;11.00;99.90;;;;;;5081481;28;20027;-76
2024/01/23 08:27:28;;;;;;;36.95;12.02;;;11.10;99.90;;;;;;5080370;28;20048;-76
2024/01/23 08:29:54;;;;;;;30.52;13.38;;;11.00;99.90;;;;;;5080249;28;20062;-76
2024/01/23 08:32:19;;;;;;;34.90;13.68;;;11.10;99.90;;;;;;5076900;28;20048;-76
2024/01/23 08:34:45;;;;;;;31.50;12.52;;;11.10;99.90;;;;;;5090510;28;20032;-76
2024/01/23 08:37:11;;;;;;;30.80;11.13;;;11.10;99.90;;;;;;5084960;28;20027;-76
2024/01/23 08:39:36;;;;;;;29.83;10.80;;;11.10;99.90;;;;;;5074641;28;20060;-76
2024/01/23 08:42:03;;;;;;;28.33;9.45;;;11.10;99.90;;;;;;5072913;28;20411;-76
2024/01/23 08:44:29;;;;;;;26.52;9.90;;;11.10;99.90;;;;;;5079120;28;20491;-76
2024/01/23 08:46:55;;;;;;;28.33;10.13;;;11.10;99.90;;;;;;5088722;28;20077;-76
2024/01/23 08:49:20;;;;;;;28.75;9.57;;;11.10;99.90;;;;;;5083989;28;20033;-77
2024/01/23 08:51:46;;;;;;;24.23;9.23;;;11.10;99.90;;;;;;5084095;28;20413;-77
2024/01/23 08:54:13;;;;;;;21.88;8.40;;;11.20;99.90;;;;;;5092725;28;20616;-76
2024/01/23 08:56:39;;;;;;;29.98;8.43;;;11.20;99.90;;;;;;5092373;28;20077;-77
2024/01/23 08:59:05;;;;;;;31.85;9.38;;;11.30;99.90;;;;;;5092739;28;20028;-76
2024/01/23 09:01:30;;;;;;;27.63;8.48;;;11.50;99.90;;;;;;5092431;28;20069;-76
2024/01/23 09:03:56;;;;;;;26.20;9.30;;;11.70;99.90;;;;;;5085184;28;20481;-76
2024/01/23 09:06:22;;;;;;;25.15;9.35;;;11.90;99.90;;;;;;5082819;28;20395;-76
2024/01/23 09:08:47;;;;;;;24.92;9.82;;;11.90;99.90;;;;;;5086524;28;20036;-76
2024/01/23 09:11:13;;;;;;;35.75;10.27;;;12.00;99.90;;;;;;5092869;28;20024;-75
2024/01/23 09:13:39;;;;;;;24.65;9.93;;;12.10;99.90;;;;;;5092360;28;20137;-72
2024/01/23 09:16:05;;;;;;;29.92;9.93;;;12.40;99.90;;;;;;5088494;28;20051;-71
2024/01/23 09:18:31;;;;;;;28.13;9.25;;;12.30;99.90;;;;;;5083989;28;20055;-70
2024/01/23 09:20:58;;;;;;;26.50;9.35;;;12.20;99.90;;;;;;5076180;28;20048;-71
2024/01/23 09:23:24;;;;;;;25.80;9.50;;;12.10;99.90;;;;;;5080369;28;20086;-71
2024/01/23 09:25:51;;;;;;;27.65;9.48;;;12.00;99.90;;;;;;5079397;28;20486;-71
2024/01/23 09:28:16;;;;;;;26.52;8.55;;;12.00;99.90;;;;;;5083378;28;20047;-71
2024/01/23 09:30:43;;;;;;;25.13;8.48;;;12.00;99.90;;;;;;5081446;28;20031;-71
2024/01/23 09:33:09;;;;;;;26.63;8.20;;;11.90;99.90;;;;;;5079251;28;20056;-71
2024/01/23 09:35:35;;;;;;;27.42;8.10;;;11.90;99.90;;;;;;5080121;28;20432;-71
2024/01/23 09:38:01;;;;;;;28.65;8.60;;;11.90;99.90;;;;;;5080962;28;20111;-71
2024/01/23 09:40:27;;;;;;;22.00;8.63;;;12.00;99.90;;;;;;5078230;28;20140;-71
2024/01/23 09:42:55;;;;;;;23.45;8.57;;;12.00;99.90;;;;;;5088061;28;20043;-72
2024/01/23 09:45:26;;;;;;;20.73;7.65;;;12.10;99.90;;;;;;5088483;28;20052;-71
2024/01/23 09:47:52;;;;;;;28.08;8.48;;;12.20;99.90;;;;;;5087337;28;20073;-71
2024/01/23 09:50:18;;;;;;;29.75;9.05;;;12.20;99.90;;;;;;5085472;28;20055;-71
2024/01/23 09:52:47;;;;;;;30.73;8.85;;;12.30;99.90;;;;;;5085088;28;20035;-71
2024/01/23 09:55:13;;;;;;;28.98;9.00;;;12.30;99.90;;;;;;5085077;28;20111;-71
2024/01/23 09:57:39;;;;;;;28.20;9.23;;;12.40;99.90;;;;;;5087330;28;20105;-71
2024/01/23 10:00:07;;;;;;;33.85;9.32;;;12.40;99.90;;;;;;5084734;28;20498;-71
2024/01/23 10:02:34;;;;;;;33.13;9.73;;;12.40;99.90;;;;;;5089673;28;20027;-71
2024/01/23 10:05:01;;;;;;;29.15;9.95;;;12.60;99.90;;;;;;5091276;28;20103;-71
2024/01/23 10:07:26;;;;;;;27.95;9.27;;;12.60;99.90;;;;;;5091559;28;20016;-71
2024/01/23 10:09:59;;;;;;;30.98;9.85;;;12.70;99.90;;;;;;5091881;28;20027;-71
2024/01/23 10:12:24;;;;;;;28.50;8.88;;;12.80;99.90;;;;;;5091580;28;20012;-71
2024/01/23 10:14:50;;;;;;;30.83;9.32;;;12.80;99.90;;;;;;5091433;28;20701;-71
2024/01/23 10:17:15;;;;;;;30.98;9.32;;;12.80;99.90;;;;;;5088855;28;20432;-71
2024/01/23 10:19:42;;;;;;;29.08;9.40;;;13.00;99.90;;;;;;5091224;28;20066;-71
2024/01/23 10:22:08;;;;;;;28.75;9.05;;;13.00;99.90;;;;;;5091776;28;20115;-71
2024/01/23 10:24:33;;;;;;;30.88;8.90;;;13.10;99.90;;;;;;5092226;28;20039;-71
2024/01/23 10:26:59;;;;;;;30.58;8.98;;;13.20;99.90;;;;;;5095895;28;20028;-71
2024/01/23 10:29:25;;;;;;;27.45;7.95;;;13.30;99.90;;;;;;5096103;28;20471;-71
2024/01/23 10:31:52;;;;;;;25.63;8.48;;;13.30;99.90;;;;;;5095852;28;20099;-71
2024/01/23 10:34:18;;;;;;;26.02;8.30;;;13.40;99.90;;;;;;5096099;28;20435;-71
2024/01/23 10:36:45;;;;;;;26.20;7.35;;;13.40;99.90;;;;;;5081622;28;20095;-71
2024/01/23 10:39:14;;;;;;;26.98;7.78;;;13.40;99.90;;;;;;5096303;28;20178;-71
2024/01/23 10:41:41;;;;;;;23.60;7.40;;;13.40;99.90;;;;;;5095109;28;20044;-71
2024/01/23 10:44:09;;;;;;;23.42;6.82;;;13.50;99.90;;;;;;5095515;28;20470;-71
2024/01/23 10:46:35;;;;;;;23.90;7.15;;;13.80;99.90;;;;;;5095663;28;20550;-73
2024/01/23 10:49:02;;;;;;;842.80;108.55;;;14.10;99.90;;;;;;5095361;28;20023;-72
2024/01/23 10:51:35;;;;;;;390.20;47.20;;;;;;;;;;5095700;28;20047;-73
2024/01/23 10:54:08;;;;;;;77.30;13.00;;;;;;;;;;5095679;28;20444;-73
2024/01/23 10:56:39;;;;;;;41.33;9.07;;;;;;;;;;5095978;28;20555;-72
2024/01/23 10:59:09;;;;;;;34.30;7.53;;;;;;;;;;5095387;28;20059;-73
2024/01/23 11:01:35;;;;;;;23.10;5.93;;;;;;;;;;5096625;28;20024;-72
2024/01/23 11:04:01;;;;;;;23.65;5.57;;;;;;;;;;5095458;28;20107;-72
2024/01/23 11:06:30;;;;;;;19.10;5.75;;;;;;;;;;5095467;28;20027;-71
2024/01/23 11:09:15;;;;;;;19.67;6.28;;;;;;;;;;5095210;28;20135;-72
2024/01/23 11:11:41;;;;;;;22.83;6.35;;;;;;;;;;5095383;28;20052;-72
2024/01/23 11:14:12;;;;;;;25.35;6.43;;;;;;;;;;5095232;28;20063;-71
2024/01/23 11:16:39;;;;;;;20.75;6.88;;;;;;;;;;5094971;28;20081;-71
2024/01/23 11:19:05;;;;;;;18.58;6.30;;;;;;;;;;5095755;28;20036;-70
2024/01/23 11:21:31;;;;;;;19.80;6.20;;;;;;;;;;5093831;28;20025;-71
2024/01/23 11:24:01;;;;;;;21.98;6.82;;;;;;;;;;5078177;28;20430;-71
2024/01/23 11:26:28;;;;;;;24.50;6.82;;;;;;;;;;5091934;28;20035;-71
2024/01/23 11:28:55;;;;;;;27.02;7.38;;;;;;;;;;5094701;28;20028;-71
2024/01/23 11:31:22;;;;;;;25.08;7.45;;;;;;;;;;5093919;28;20024;-70
2024/01/23 11:33:49;;;;;;;21.30;7.47;;;;;;;;;;5094529;28;20460;-70
2024/01/23 11:36:21;;;;;;;23.25;7.13;;;;;;;;;;5093824;28;20120;-70
2024/01/23 11:38:56;;;;;;;23.10;7.50;;;;;;;;;;5094351;28;20028;-71
2024/01/23 11:41:22;;;;;;;21.98;7.03;;;;;;;;;;5092649;28;20052;-71
2024/01/23 11:43:49;;;;;;;21.95;7.03;;;;;;;;;;5094015;28;20035;-72
2024/01/23 11:46:18;;;;;;;22.55;6.50;;;;;;;;;;5094250;28;20486;-71
2024/01/23 11:48:44;;;;;;;22.20;7.28;;;;;;;;;;5095175;28;20020;-71
2024/01/23 11:51:15;;;;;;;20.98;7.10;;;;;;;;;;5094477;28;20024;-71
2024/01/23 11:53:41;;;;;;;21.10;6.57;;;;;;;;;;5094603;28;20395;-72
2024/01/23 11:56:08;;;;;;;20.33;6.35;;;;;;;;;;5094555;28;20043;-71
2024/01/23 11:58:34;;;;;;;18.88;5.70;;;;;;;;;;5094283;28;20024;-71
2024/01/23 12:01:01;;;;;;;21.85;6.82;;;;;;;;;;5094555;28;20160;-71
2024/01/23 12:03:28;;;;;;;21.90;6.38;;;;;;;;;;5094135;28;20031;-71
2024/01/23 12:05:54;;;;;;;21.02;6.25;;;;;;;;;;5094551;28;20030;-71
2024/01/23 12:08:21;;;;;;;16.05;5.45;;;;;;;;;;5094458;28;20531;-71
2024/01/23 12:10:47;;;;;;;16.65;5.13;;;;;;;;;;5094411;28;20389;-71
2024/01/23 12:13:13;;;;;;;17.15;5.97;;;;;;;;;;5094533;28;20016;-71
2024/01/23 12:15:39;;;;;;;16.55;4.63;;;;;;;;;;5093699;28;20032;-72
2024/01/23 12:18:05;;;;;;;15.60;5.32;;;;;;;;;;5094299;28;20371;-71
2024/01/23 12:20:31;;;;;;;13.70;4.50;;;;;;;;;;5094050;28;20165;-71
2024/01/23 12:22:57;;;;;;;10.93;4.40;;;;;;;;;;5088371;28;20604;-72
2024/01/23 12:25:24;;;;;;;12.57;4.25;;;;;;;;;;5090950;28;20031;-72
2024/01/23 12:27:50;;;;;;;11.75;4.72;;;;;;;;;;5093154;28;20031;-72
2024/01/23 12:30:17;;;;;;;12.80;3.75;;;;;;;;;;5092927;28;20024;-72
2024/01/23 12:32:47;;;;;;;11.00;3.78;;;;;;;;;;5090944;28;20052;-73
2024/01/23 12:35:13;;;;;;;10.57;3.92;;;;;;;;;;5090740;28;20063;-72
2024/01/23 12:37:40;;;;;;;7.88;2.80;;;16.60;99.90;;;;;;5088948;28;20012;-72
2024/01/23 12:40:11;;;;;;;9.43;3.05;;;16.60;99.90;;;;;;5092882;28;20064;-72